Time;durP1;ratioP1;P1;durP2;ratioP2;P2;SDS_P1;SDS_P2;PMS_P1;PMS_P2;Temp;Humidity;BMP_temperature;BMP_pressure;BME280_temperature;BME280_humidity;BME280_pressure;Samples;Min_cycle;Max_cycle;Signal;HPM_P1;HPM_P2
2022/07/29 00:00:45;;;;;;;0.10;0.10;;;16.90;66.20;;;18.55;56.47;102063.53;2072792;28;20057;-63
2022/07/29 00:01:55;;;;;;;0.10;0.10;;;16.80;66.20;;;18.53;56.11;102056.84;2070028;28;20552;-64
2022/07/29 00:03:02;;;;;;;0.10;0.10;;;16.90;66.40;;;18.54;56.56;102061.94;2062930;28;20632;-64
2022/07/29 00:04:04;;;;;;;0.10;0.10;;;16.90;66.40;;;18.53;56.28;102060.38;2063939;28;20392;-64
2022/07/29 00:05:13;;;;;;;0.10;0.10;;;16.90;66.50;;;18.53;56.38;102054.91;2071567;28;20480;-64
2022/07/29 00:06:16;;;;;;;0.10;0.10;;;16.90;66.50;;;18.52;56.83;102056.03;2070961;28;20640;-63
2022/07/29 00:07:20;;;;;;;0.10;0.10;;;17.00;66.60;;;18.54;56.48;102055.69;2069667;28;20053;-64
2022/07/29 00:08:22;;;;;;;0.00;0.00;;;16.90;66.50;;;18.54;56.50;102056.47;2070072;28;20050;-64
2022/07/29 00:09:27;;;;;;;0.00;0.00;;;17.00;66.50;;;18.56;56.58;102061.59;2068585;28;20073;-64
2022/07/29 00:10:30;;;;;;;0.00;0.00;;;17.00;66.50;;;18.53;56.53;102054.13;2072063;28;20050;-64
2022/07/29 00:11:33;;;;;;;0.00;0.00;;;17.00;66.50;;;18.53;56.73;102056.84;2071048;28;20481;-64
2022/07/29 00:12:37;;;;;;;0.10;0.10;;;17.00;66.50;;;18.53;56.80;102056.84;2062164;28;20487;-64
2022/07/29 00:13:41;;;;;;;0.10;0.10;;;17.00;66.50;;;18.54;56.81;102059.22;2056087;28;20058;-64
2022/07/29 00:14:48;;;;;;;0.10;0.10;;;16.90;66.50;;;18.54;56.65;102053.75;2067330;28;20062;-64
2022/07/29 00:15:52;;;;;;;0.00;0.00;;;17.00;66.60;;;18.54;56.56;102053.75;2071784;28;20128;-64
2022/07/29 00:16:55;;;;;;;0.10;0.10;;;17.00;66.70;;;18.54;57.06;102052.94;2066736;28;20081;-64
2022/07/29 00:17:58;;;;;;;0.00;0.00;;;17.00;66.70;;;18.53;56.95;102043.97;2067573;28;20042;-66
2022/07/29 00:19:01;;;;;;;0.00;0.00;;;16.90;66.70;;;18.53;57.03;102054.91;2055668;28;20050;-64
2022/07/29 00:20:06;;;;;;;0.10;0.10;;;16.90;66.70;;;18.52;56.99;102044.34;2055978;28;20046;-63
2022/07/29 00:21:09;;;;;;;0.10;0.10;;;16.90;66.80;;;18.51;56.97;102059.94;2070657;28;20550;-64
2022/07/29 00:22:12;;;;;;;0.10;0.10;;;17.00;66.80;;;18.51;56.95;102050.94;2066376;28;20512;-64
2022/07/29 00:23:14;;;;;;;0.10;0.10;;;17.00;66.90;;;18.52;57.10;102044.34;2069068;28;20138;-64
2022/07/29 00:24:18;;;;;;;0.00;0.00;;;16.90;66.90;;;18.51;57.12;102038.06;2066522;28;20130;-63
2022/07/29 00:25:20;;;;;;;0.10;0.10;;;16.90;67.10;;;18.50;56.98;102047.44;2064523;28;20557;-64
2022/07/29 00:26:24;;;;;;;0.10;0.10;;;16.90;67.20;;;18.49;57.17;102037.63;2070831;28;20133;-64
2022/07/29 00:27:27;;;;;;;0.10;0.10;;;16.90;67.30;;;18.49;57.43;102037.63;2068576;28;20113;-63
2022/07/29 00:28:32;;;;;;;0.05;0.05;;;16.90;67.40;;;18.48;57.41;102029.78;2069205;28;20077;-66
2022/07/29 00:29:34;;;;;;;0.10;0.10;;;16.90;67.50;;;18.47;57.14;102030.97;2068013;28;20096;-63
2022/07/29 00:30:38;;;;;;;0.00;0.00;;;16.90;67.40;;;18.46;57.59;102030.16;2068756;28;20061;-64
2022/07/29 00:31:40;;;;;;;0.10;0.10;;;16.90;67.40;;;18.46;57.43;102026.63;2070914;28;20046;-64
2022/07/29 00:32:44;;;;;;;0.00;0.00;;;16.90;67.50;;;18.45;57.24;102025.06;2064276;28;20058;-64
2022/07/29 00:33:47;;;;;;;0.03;0.03;;;16.90;67.50;;;18.47;57.54;102029.00;2064716;28;20077;-63
2022/07/29 00:36:11;;;;;;;0.10;0.10;;;16.90;67.50;;;18.46;57.29;102016.47;2064601;28;20137;-64
2022/07/29 00:37:13;;;;;;;0.10;0.10;;;16.80;67.60;;;18.45;57.63;102025.06;2066548;28;20077;-64
2022/07/29 00:38:19;;;;;;;0.10;0.10;;;16.80;67.80;;;18.40;57.68;102020.69;2075927;28;20436;-63
2022/07/29 00:39:22;;;;;;;0.03;0.03;;;16.80;67.80;;;18.40;57.80;102022.63;2076022;28;20080;-65
2022/07/29 00:40:26;;;;;;;0.10;0.10;;;16.90;68.00;;;18.40;57.90;102017.16;2067933;28;20095;-64
2022/07/29 00:41:30;;;;;;;0.00;0.00;;;16.90;68.00;;;18.40;57.98;102020.69;2066608;28;20054;-63
2022/07/29 00:42:43;;;;;;;0.10;0.10;;;16.90;68.00;;;18.40;58.17;102015.22;2075775;28;20045;-63
2022/07/29 00:43:48;;;;;;;0.00;0.00;;;16.80;68.20;;;18.42;58.06;102007.44;2080705;28;20095;-64
2022/07/29 00:44:50;;;;;;;0.10;0.10;;;16.80;68.10;;;18.44;57.93;102018.00;2076867;28;20125;-64
2022/07/29 00:45:54;;;;;;;0.00;0.00;;;16.90;68.20;;;18.45;57.77;102016.84;2075006;28;20517;-64
2022/07/29 00:46:57;;;;;;;0.10;0.10;;;16.90;68.20;;;18.46;58.07;102018.41;2076614;28;20132;-64
2022/07/29 00:48:01;;;;;;;0.00;0.00;;;16.90;68.30;;;18.45;58.06;102009.44;2073057;28;20509;-63
2022/07/29 00:49:03;;;;;;;0.00;0.00;;;16.90;68.30;;;18.44;58.17;102002.38;2072421;28;20096;-64
2022/07/29 00:50:11;;;;;;;0.10;0.10;;;16.90;68.40;;;18.44;58.27;102010.59;2078020;28;20107;-64
2022/07/29 00:51:15;;;;;;;0.05;0.05;;;16.90;68.50;;;18.44;58.43;102007.09;2075357;28;20050;-64
2022/07/29 00:52:18;;;;;;;0.10;0.10;;;16.90;68.60;;;18.41;58.36;102003.09;2076710;28;20064;-64
2022/07/29 00:53:23;;;;;;;0.10;0.10;;;16.80;68.60;;;18.40;58.47;102004.28;2071353;28;20053;-65
2022/07/29 00:54:26;;;;;;;0.10;0.10;;;16.80;68.70;;;18.38;58.40;102009.31;2072555;28;20375;-64
2022/07/29 00:55:31;;;;;;;0.10;0.10;;;16.80;68.70;;;18.35;58.34;101993.59;2079740;28;20231;-65
2022/07/29 00:56:33;;;;;;;0.10;0.10;;;16.80;68.70;;;18.38;58.39;101997.56;2077001;28;20115;-64
2022/07/29 00:57:38;;;;;;;0.03;0.03;;;16.90;68.80;;;18.38;58.65;101997.56;2077314;28;20049;-65
2022/07/29 00:58:41;;;;;;;0.00;0.00;;;16.80;68.90;;;18.38;58.62;101998.38;2076680;28;20140;-64
2022/07/29 00:59:46;;;;;;;0.10;0.10;;;16.80;68.90;;;18.38;58.54;101992.09;2072843;28;20090;-65
2022/07/29 01:00:48;;;;;;;0.10;0.10;;;16.80;68.90;;;18.39;58.51;101994.50;2078948;28;20052;-64
2022/07/29 01:01:52;;;;;;;0.00;0.00;;;16.80;69.10;;;18.37;58.80;101991.31;2070098;28;20395;-64
2022/07/29 01:02:55;;;;;;;0.00;0.00;;;16.80;69.10;;;18.38;58.79;101990.16;2070715;28;20054;-65
2022/07/29 01:03:59;;;;;;;0.08;0.08;;;16.80;69.20;;;18.38;58.80;101997.56;2078284;28;20471;-64
2022/07/29 01:05:04;;;;;;;0.00;0.00;;;16.80;69.40;;;18.37;59.06;101998.72;2073853;28;20046;-64
2022/07/29 01:06:08;;;;;;;0.10;0.10;;;16.80;69.40;;;18.35;58.91;101999.06;2072962;28;20164;-64
2022/07/29 01:07:11;;;;;;;0.10;0.10;;;16.80;69.50;;;18.36;58.83;101997.91;2077901;28;20574;-64
2022/07/29 01:08:17;;;;;;;0.08;0.08;;;16.80;69.50;;;18.35;58.96;102004.53;2076872;28;20042;-65
2022/07/29 01:09:21;;;;;;;0.10;0.10;;;16.80;69.50;;;18.38;59.01;102005.78;2078445;28;20053;-64
2022/07/29 01:10:46;;;;;;;0.00;0.00;;;16.80;69.60;;;18.41;58.96;102002.34;2076066;28;20117;-64
2022/07/29 01:11:50;;;;;;;0.00;0.00;;;16.80;69.60;;;18.40;58.87;102007.00;2073123;28;20050;-64
2022/07/29 01:12:57;;;;;;;0.03;0.03;;;16.80;69.70;;;18.32;59.07;101997.06;2072422;28;20360;-67
2022/07/29 01:14:01;;;;;;;0.00;0.00;;;16.80;69.70;;;18.34;59.32;102005.72;2078268;28;20518;-64
2022/07/29 01:15:09;;;;;;;0.00;0.00;;;16.80;69.60;;;18.33;59.47;102006.84;2075210;28;20441;-67
2022/07/29 01:16:21;;;;;;;0.00;0.00;;;16.90;69.70;;;18.35;59.22;101995.53;2075148;28;20129;-64
2022/07/29 01:17:29;;;;;;;0.10;0.10;;;16.80;69.70;;;18.34;59.27;102000.25;2076056;28;20417;-64
2022/07/29 01:18:40;;;;;;;0.00;0.00;;;16.80;69.80;;;18.34;59.67;101993.97;2079335;28;20050;-64
2022/07/29 01:19:50;;;;;;;;;;;16.80;69.70;;;18.35;59.24;101999.06;2072643;28;20061;-64
2022/07/29 01:21:36;;;;;;;0.00;0.00;;;16.80;70.50;;;18.36;59.06;102005.34;2077122;28;19929;-65
2022/07/29 01:23:22;;;;;;;0.10;0.10;;;16.80;70.00;;;18.32;59.13;102004.47;2075994;28;20053;-67
2022/07/29 01:24:56;;;;;;;0.10;0.10;;;16.80;70.50;;;18.28;59.52;101998.16;2066471;28;20053;-65
2022/07/29 01:26:34;;;;;;;0.05;0.05;;;16.80;70.50;;;18.23;59.28;101999.25;2069998;28;20046;-65
2022/07/29 01:28:00;;;;;;;0.10;0.10;;;16.80;70.60;;;18.20;59.62;101991.00;2073328;28;20074;-65
2022/07/29 01:29:27;;;;;;;0.00;0.00;;;16.70;70.30;;;18.17;60.05;102003.44;2074848;28;20397;-65
2022/07/29 01:30:44;;;;;;;0.00;0.00;;;16.70;70.40;;;18.17;59.96;101986.25;2071182;28;20053;-64
2022/07/29 01:31:57;;;;;;;0.00;0.00;;;16.70;70.20;;;18.14;59.76;101995.97;2080054;28;20053;-65
2022/07/29 01:33:11;;;;;;;0.05;0.05;;;16.70;70.60;;;18.14;60.21;101995.97;2079865;28;20511;-64
2022/07/29 01:34:48;;;;;;;0.00;0.00;;;16.70;70.40;;;18.14;60.10;101987.75;2077168;28;20064;-65
2022/07/29 01:35:52;;;;;;;0.08;0.08;;;16.70;70.70;;;18.14;60.14;101985.03;2073600;28;20061;-65
2022/07/29 01:37:20;;;;;;;0.03;0.03;;;16.80;70.40;;;18.14;60.65;101989.72;2072159;28;20046;-65
2022/07/29 01:38:27;;;;;;;0.00;0.00;;;16.80;70.50;;;18.14;60.48;101989.72;2076170;28;20053;-65
2022/07/29 01:39:40;;;;;;;0.10;0.10;;;16.70;70.80;;;18.13;60.23;101988.13;2076650;28;20528;-68
2022/07/29 01:40:49;;;;;;;0.10;0.10;;;16.70;71.20;;;18.08;60.44;101972.03;2072250;28;20069;-65
2022/07/29 01:42:11;;;;;;;0.10;0.10;;;16.70;70.70;;;18.10;60.76;101986.13;2073755;28;20061;-65
2022/07/29 01:43:20;;;;;;;0.10;0.10;;;16.70;71.00;;;18.10;60.77;101986.13;2071817;28;20112;-65
2022/07/29 01:44:36;;;;;;;0.10;0.10;;;16.70;70.80;;;18.11;60.94;101976.78;2074825;28;20049;-65
2022/07/29 01:45:45;;;;;;;0.10;0.10;;;16.70;71.00;;;18.08;60.66;101967.34;2075293;28;20437;-65
2022/07/29 01:46:59;;;;;;;0.10;0.10;;;16.70;71.10;;;18.10;60.57;101970.53;2074218;28;20113;-65
2022/07/29 01:48:12;;;;;;;0.10;0.10;;;16.70;71.10;;;18.08;60.88;101967.34;2076209;28;20057;-65
2022/07/29 01:49:23;;;;;;;0.10;0.10;;;16.70;71.20;;;18.08;61.13;101966.56;2070108;28;20497;-65
2022/07/29 01:50:36;;;;;;;0.10;0.10;;;16.70;71.20;;;18.09;60.97;101968.16;2071819;28;20085;-65
2022/07/29 01:51:49;;;;;;;0.10;0.10;;;16.70;71.20;;;18.06;61.16;101961.44;2078082;28;20493;-65
2022/07/29 01:53:02;;;;;;;0.10;0.10;;;16.70;71.20;;;18.10;60.95;101972.44;2075162;28;20558;-65
2022/07/29 01:54:18;;;;;;;0.10;0.10;;;16.70;71.60;;;18.09;61.28;101965.41;2072063;28;20053;-65
2022/07/29 01:55:36;;;;;;;0.10;0.10;;;16.70;71.40;;;18.09;61.24;101965.41;2079881;28;20506;-65
2022/07/29 01:56:44;;;;;;;0.10;0.10;;;16.70;71.60;;;18.07;61.20;101960.31;2077985;28;20053;-65
2022/07/29 01:57:55;;;;;;;0.10;0.10;;;16.70;71.50;;;18.07;61.18;101959.50;2074927;28;20422;-65
2022/07/29 01:59:04;;;;;;;0.10;0.10;;;16.70;71.40;;;18.06;61.12;101964.19;2074376;28;20053;-65
2022/07/29 02:00:13;;;;;;;0.10;0.10;;;16.70;71.50;;;18.07;61.28;101960.31;2075852;28;20050;-65
2022/07/29 02:01:17;;;;;;;0.10;0.10;;;16.70;71.50;;;18.05;61.08;101954.41;2076775;28;20061;-65
2022/07/29 02:02:23;;;;;;;0.10;0.10;;;16.70;71.50;;;18.07;61.36;101963.06;2078295;28;20416;-65
2022/07/29 02:03:32;;;;;;;0.10;0.10;;;16.70;71.60;;;18.02;61.30;101952.41;2077449;28;20084;-65
2022/07/29 02:04:41;;;;;;;0.10;0.10;;;16.70;71.60;;;18.05;61.38;101951.69;2073783;28;20061;-65
2022/07/29 02:05:48;;;;;;;0.10;0.10;;;16.70;71.50;;;18.06;61.04;101953.25;2065010;28;20049;-65
2022/07/29 02:06:56;;;;;;;0.00;0.00;;;16.70;71.50;;;18.04;61.20;101946.59;2065432;28;20062;-65
2022/07/29 02:08:01;;;;;;;0.10;0.10;;;16.60;71.50;;;18.03;61.17;101942.28;2073406;28;20050;-65
2022/07/29 02:09:08;;;;;;;0.10;0.10;;;16.70;71.60;;;17.99;61.14;101942.22;2070049;28;20422;-65
2022/07/29 02:10:12;;;;;;;0.10;0.10;;;16.60;71.60;;;18.02;61.29;101938.75;2069272;28;20053;-65
2022/07/29 02:11:16;;;;;;;0.10;0.10;;;16.60;71.60;;;18.04;61.20;101941.13;2072779;28;20401;-65
2022/07/29 02:12:21;;;;;;;0.10;0.10;;;16.60;71.60;;;18.05;61.36;101940.75;2074090;28;20088;-66
2022/07/29 02:13:29;;;;;;;0.10;0.10;;;16.60;71.70;;;18.07;61.28;101943.91;2072131;28;20049;-67
2022/07/29 02:14:40;;;;;;;0.05;0.05;;;16.60;71.80;;;18.07;61.63;101943.91;2072511;28;20053;-65
2022/07/29 02:15:48;;;;;;;0.10;0.10;;;16.60;71.90;;;18.07;61.29;101943.91;2075947;28;20049;-65
2022/07/29 02:16:59;;;;;;;0.05;0.05;;;16.60;72.00;;;18.06;61.33;101939.59;2071922;28;20054;-64
2022/07/29 02:18:15;;;;;;;0.10;0.10;;;16.60;72.10;;;18.06;61.06;101942.31;2072016;28;20127;-65
2022/07/29 02:19:25;;;;;;;0.10;0.10;;;16.50;72.10;;;18.04;61.67;101928.25;2073661;28;20049;-65
2022/07/29 02:20:33;;;;;;;;;;;16.50;72.10;;;18.08;61.14;101937.28;2070336;28;20057;-65
2022/07/29 02:21:36;;;;;;;0.10;0.10;;;16.50;72.70;;;18.07;60.99;101932.19;2064755;28;19926;-64
2022/07/29 02:22:52;;;;;;;0.10;0.10;;;16.50;72.10;;;18.03;61.12;101939.53;2073913;28;20848;-65
2022/07/29 02:24:04;;;;;;;0.10;0.10;;;16.50;72.30;;;18.03;61.27;101943.06;2080133;28;20061;-66
2022/07/29 02:25:17;;;;;;;0.00;0.00;;;16.50;72.20;;;18.00;61.36;101938.31;2079652;28;20103;-65
2022/07/29 02:26:28;;;;;;;0.10;0.10;;;16.50;72.50;;;17.97;61.61;101928.13;2079991;28;20092;-65
2022/07/29 02:27:34;;;;;;;;;;;16.50;72.60;;;18.00;61.04;101932.84;2078311;28;20679;-64
2022/07/29 02:28:46;;;;;;;0.10;0.10;;;16.40;73.20;;;17.96;61.41;101932.00;2072988;28;19925;-65
2022/07/29 02:29:54;;;;;;;0.10;0.10;;;16.40;73.20;;;17.92;61.46;101920.22;2073971;28;20084;-65
2022/07/29 02:31:04;;;;;;;0.10;0.10;;;16.40;72.60;;;17.91;61.92;101918.66;2079766;28;20049;-64
2022/07/29 02:32:14;;;;;;;0.00;0.00;;;16.40;72.90;;;17.84;61.84;101913.84;2077044;28;20124;-64
2022/07/29 02:33:21;;;;;;;0.10;0.10;;;16.40;72.80;;;17.87;61.83;101917.78;2077970;28;20053;-64
2022/07/29 02:34:28;;;;;;;0.00;0.00;;;16.40;72.80;;;17.85;62.23;101925.56;2076650;28;20470;-64
2022/07/29 02:35:37;;;;;;;0.05;0.05;;;16.40;72.80;;;17.85;61.97;101911.91;2080488;28;20497;-66
2022/07/29 02:36:59;;;;;;;0.10;0.10;;;16.40;72.80;;;17.84;62.18;101916.56;2073455;28;20091;-64
2022/07/29 02:39:31;;;;;;;0.03;0.03;;;16.40;72.80;;;17.85;62.27;101909.19;2069726;28;20128;-64
2022/07/29 02:40:44;;;;;;;0.08;0.08;;;16.40;72.70;;;17.86;61.93;101916.22;2065131;28;20133;-63
2022/07/29 02:41:56;;;;;;;0.10;0.10;;;16.40;72.70;;;17.86;62.11;101906.06;2065339;28;20054;-65
2022/07/29 02:43:02;;;;;;;0.10;0.10;;;16.40;72.60;;;17.86;61.90;101918.94;2070432;28;20044;-64
2022/07/29 02:44:16;;;;;;;0.10;0.10;;;16.40;72.60;;;17.87;61.86;101917.78;2069252;28;20125;-64
2022/07/29 02:45:20;;;;;;;0.10;0.10;;;16.40;72.60;;;17.85;61.86;101920.09;2069792;28;20046;-64
2022/07/29 02:46:34;;;;;;;0.10;0.10;;;16.40;72.60;;;17.79;62.12;101910.63;2070488;28;20077;-64
2022/07/29 02:47:49;;;;;;;0.10;0.10;;;16.40;72.60;;;17.83;62.07;101916.94;2066022;28;20564;-64
2022/07/29 02:49:04;;;;;;;0.10;0.10;;;16.50;72.50;;;17.81;61.70;101917.31;2065104;28;20054;-63
2022/07/29 02:50:15;;;;;;;0.10;0.10;;;16.40;72.40;;;17.83;61.83;101916.94;2065071;28;20510;-64
2022/07/29 02:51:28;;;;;;;;;;;16.40;72.40;;;17.83;61.64;101917.75;2073198;28;20421;-64
2022/07/29 02:52:59;;;;;;;0.10;0.10;;;16.40;72.90;;;17.80;61.41;101913.00;2065943;28;19976;-64
2022/07/29 02:54:10;;;;;;;0.10;0.10;;;16.40;72.50;;;17.80;61.37;101928.59;2065290;28;20057;-64
2022/07/29 02:55:26;;;;;;;0.10;0.10;;;16.40;72.30;;;17.77;61.43;101921.91;2072849;28;20042;-64
2022/07/29 02:56:37;;;;;;;0.10;0.10;;;16.40;72.30;;;17.76;61.46;101916.78;2069434;28;20049;-64
2022/07/29 02:57:49;;;;;;;0.10;0.10;;;16.40;72.20;;;17.73;61.64;101917.53;2070473;28;20128;-64
2022/07/29 02:59:03;;;;;;;0.10;0.10;;;16.40;72.10;;;17.74;61.75;101913.66;2067439;28;20042;-65
2022/07/29 03:00:13;;;;;;;0.10;0.10;;;16.40;72.10;;;17.74;61.72;101919.88;2064995;28;20039;-65
2022/07/29 03:01:35;;;;;;;0.10;0.10;;;16.40;72.10;;;17.71;61.93;101908.94;2064634;28;20050;-64
2022/07/29 03:02:45;;;;;;;0.10;0.10;;;16.40;72.30;;;17.74;61.79;101919.13;2069549;28;20172;-64
2022/07/29 03:03:51;;;;;;;0.00;0.00;;;16.40;72.10;;;17.70;61.96;101907.31;2068220;28;20046;-64
2022/07/29 03:04:56;;;;;;;0.10;0.10;;;16.40;72.10;;;17.74;62.04;101910.94;2068094;28;20493;-64
2022/07/29 03:06:02;;;;;;;0.10;0.10;;;16.40;72.00;;;17.74;62.09;101916.38;2065164;28;20054;-64
2022/07/29 03:07:07;;;;;;;0.10;0.10;;;16.40;72.00;;;17.72;61.81;101914.03;2064973;28;20070;-64
2022/07/29 03:08:12;;;;;;;0.10;0.10;;;16.40;72.00;;;17.75;61.81;101904.31;2063857;28;20122;-65
2022/07/29 03:09:16;;;;;;;0.08;0.08;;;16.40;72.00;;;17.77;61.77;101915.66;2065397;28;20050;-65
2022/07/29 03:10:19;;;;;;;0.10;0.10;;;16.40;72.00;;;17.78;61.85;101909.03;2068997;28;20085;-64
2022/07/29 03:11:23;;;;;;;0.10;0.10;;;16.50;72.00;;;17.73;61.80;101901.94;2065399;28;20065;-65
2022/07/29 03:12:47;;;;;;;0.10;0.10;;;16.40;72.00;;;17.78;61.84;101909.84;2065154;28;20153;-64
2022/07/29 03:13:51;;;;;;;0.10;0.10;;;16.40;72.00;;;17.79;61.99;101907.91;2071902;28;20140;-64
2022/07/29 03:14:55;;;;;;;0.10;0.10;;;16.40;72.10;;;17.78;61.95;101906.31;2068742;28;20073;-65
2022/07/29 03:15:59;;;;;;;0.10;0.10;;;16.50;72.10;;;17.77;61.66;101907.47;2069085;28;20073;-64
2022/07/29 03:17:04;;;;;;;0.10;0.10;;;16.50;72.10;;;17.77;61.93;101902.78;2066135;28;20151;-65
2022/07/29 03:18:08;;;;;;;0.10;0.10;;;16.50;72.10;;;17.78;61.84;101900.84;2065137;28;20086;-63
2022/07/29 03:19:11;;;;;;;0.10;0.10;;;16.40;72.10;;;17.77;61.65;101902.00;2071909;28;20129;-64
2022/07/29 03:20:15;;;;;;;0.10;0.10;;;16.40;72.10;;;17.79;61.75;101896.97;2068494;28;20085;-64
2022/07/29 03:21:19;;;;;;;0.00;0.00;;;16.40;72.10;;;17.81;61.67;101902.84;2068812;28;20085;-65
2022/07/29 03:22:22;;;;;;;0.10;0.10;;;16.40;72.20;;;17.79;61.79;101905.16;2068110;28;20124;-64
2022/07/29 03:23:27;;;;;;;0.10;0.10;;;16.40;72.10;;;17.79;62.01;101905.94;2064997;28;20050;-64
2022/07/29 03:24:39;;;;;;;0.00;0.00;;;16.40;72.30;;;17.79;61.40;101900.47;2065143;28;20130;-64
2022/07/29 03:25:42;;;;;;;0.10;0.10;;;16.40;72.30;;;17.79;61.69;101899.72;2069548;28;20049;-64
2022/07/29 03:26:46;;;;;;;0.00;0.00;;;16.40;72.20;;;17.77;61.82;101897.31;2067378;28;20061;-65
2022/07/29 03:27:48;;;;;;;0.10;0.10;;;16.40;72.20;;;17.77;61.73;101900.03;2068414;28;20724;-65
2022/07/29 03:28:52;;;;;;;0.10;0.10;;;16.40;72.20;;;17.78;61.86;101900.84;2067107;28;20089;-64
2022/07/29 03:29:56;;;;;;;0.10;0.10;;;16.40;72.30;;;17.79;61.63;101899.72;2064446;28;20050;-66
2022/07/29 03:30:58;;;;;;;0.10;0.10;;;16.40;72.30;;;17.78;61.54;101898.09;2069799;28;20401;-64
2022/07/29 03:32:06;;;;;;;0.10;0.08;;;16.40;72.40;;;17.78;61.94;101895.38;2069172;28;20046;-64
2022/07/29 03:33:10;;;;;;;0.05;0.05;;;16.40;72.40;;;17.79;61.73;101895.00;2064373;28;20136;-64
2022/07/29 03:34:16;;;;;;;0.10;0.10;;;16.40;72.30;;;17.79;61.92;101894.25;2068872;28;20077;-64
2022/07/29 03:35:21;;;;;;;0.10;0.10;;;16.40;72.30;;;17.78;62.02;101893.44;2072884;28;20054;-64
2022/07/29 03:36:24;;;;;;;0.10;0.10;;;16.40;72.30;;;17.78;62.06;101887.19;2065214;28;20063;-64
2022/07/29 03:37:30;;;;;;;0.10;0.10;;;16.40;72.30;;;17.79;61.61;101892.28;2066709;28;20097;-64
2022/07/29 03:38:36;;;;;;;0.10;0.10;;;16.40;72.40;;;17.78;62.25;101887.97;2062523;28;20585;-64
2022/07/29 03:39:43;;;;;;;0.10;0.10;;;16.30;72.40;;;17.80;61.98;101887.63;2068056;28;20096;-64
2022/07/29 03:40:52;;;;;;;0.10;0.10;;;16.30;72.40;;;17.80;61.78;101888.41;2073308;28;20088;-64
2022/07/29 03:41:59;;;;;;;0.10;0.10;;;16.40;73.10;;;17.81;61.56;101883.72;2074550;28;20552;-64
2022/07/29 03:43:03;;;;;;;0.10;0.10;;;16.30;72.50;;;17.78;61.79;101887.97;2079084;28;20467;-66
2022/07/29 03:44:08;;;;;;;0.20;0.20;;;16.30;72.60;;;17.80;61.48;101890.34;2075343;28;20092;-64
2022/07/29 03:45:18;;;;;;;0.10;0.10;;;16.30;72.50;;;17.78;61.78;101889.91;2077050;28;20058;-64
2022/07/29 03:46:22;;;;;;;;;;;16.30;72.70;;;17.80;61.85;101884.88;2065108;28;20490;-65
2022/07/29 03:47:29;;;;;;;0.10;0.10;;;16.30;73.20;;;17.77;61.57;101885.63;2064557;28;20378;-64
2022/07/29 03:48:59;;;;;;;0.10;0.10;;;16.30;72.70;;;17.78;61.72;101881.72;2073252;28;20149;-64
2022/07/29 03:50:07;;;;;;;0.10;0.10;;;16.20;73.40;;;17.76;61.69;101889.47;2074463;28;20506;-64
2022/07/29 03:51:12;;;;;;;0.10;0.10;;;16.20;72.90;;;17.74;61.62;101898.03;2075767;28;20666;-64
2022/07/29 03:52:16;;;;;;;0.10;0.10;;;16.20;72.80;;;17.72;62.38;101892.16;2073222;28;20077;-65
2022/07/29 03:53:18;;;;;;;0.10;0.10;;;16.20;72.90;;;17.71;62.00;101889.81;2073035;28;20088;-65
2022/07/29 03:54:25;;;;;;;0.10;0.10;;;16.20;73.00;;;17.71;62.10;101887.84;2074016;28;20103;-64
2022/07/29 03:55:32;;;;;;;0.10;0.10;;;16.20;73.00;;;17.70;62.18;101890.94;2065500;28;20050;-64
2022/07/29 03:56:42;;;;;;;0.10;0.10;;;16.20;73.10;;;17.69;62.32;101884.69;2072307;28;20494;-64
2022/07/29 03:57:46;;;;;;;0.13;0.13;;;16.20;73.10;;;17.68;62.37;101882.31;2074901;28;20065;-65
2022/07/29 03:58:51;;;;;;;0.10;0.10;;;16.20;73.10;;;17.70;62.42;101889.00;2073188;28;20050;-63
2022/07/29 03:59:55;;;;;;;0.10;0.10;;;16.20;73.40;;;17.71;62.33;101884.34;2075299;28;20096;-64
2022/07/29 04:00:58;;;;;;;0.10;0.10;;;16.20;73.30;;;17.71;62.19;101884.34;2078096;28;20045;-64
2022/07/29 04:02:03;;;;;;;0.10;0.10;;;16.20;73.40;;;17.70;62.52;101882.75;2078959;28;20528;-63
2022/07/29 04:03:09;;;;;;;0.10;0.10;;;16.20;73.40;;;17.65;62.20;101877.56;2075301;28;20046;-64
2022/07/29 04:04:14;;;;;;;0.10;0.10;;;16.20;73.40;;;17.71;62.66;101881.59;2072975;28;20084;-64
2022/07/29 04:05:18;;;;;;;0.10;0.10;;;16.20;73.40;;;17.70;62.45;101875.34;2076266;28;20453;-66
2022/07/29 04:06:22;;;;;;;0.10;0.10;;;16.20;73.40;;;17.72;62.29;101886.72;2078054;28;20054;-64
2022/07/29 04:07:24;;;;;;;0.10;0.10;;;16.20;73.40;;;17.72;62.08;101886.72;2079406;28;20054;-65
2022/07/29 04:08:27;;;;;;;0.10;0.10;;;16.20;73.40;;;17.72;62.02;101888.63;2076612;28;20103;-65
2022/07/29 04:09:31;;;;;;;0.10;0.10;;;16.20;73.30;;;17.72;62.05;101886.72;2080139;28;20580;-64
2022/07/29 04:10:35;;;;;;;0.10;0.10;;;16.20;73.30;;;17.72;62.59;101880.44;2073626;28;20054;-64
2022/07/29 04:11:39;;;;;;;0.10;0.10;;;16.20;73.20;;;17.72;62.29;101877.72;2063326;28;20054;-65
2022/07/29 04:13:03;;;;;;;0.10;0.10;;;16.20;73.30;;;17.72;62.28;101880.44;2067946;28;20588;-64
2022/07/29 04:14:05;;;;;;;0.10;0.10;;;16.20;73.10;;;17.71;62.14;101881.59;2078186;28;20049;-65
2022/07/29 04:15:10;;;;;;;0.10;0.10;;;16.20;73.00;;;17.72;62.30;101877.72;2075952;28;20041;-64
2022/07/29 04:16:12;;;;;;;0.10;0.10;;;16.30;73.00;;;17.69;61.98;101873.78;2080543;28;20060;-64
2022/07/29 04:17:16;;;;;;;0.10;0.10;;;16.30;73.00;;;17.69;62.23;101879.25;2078116;28;20057;-64
2022/07/29 04:18:21;;;;;;;0.20;0.20;;;16.30;72.90;;;17.69;62.25;101875.72;2076548;28;20042;-67
2022/07/29 04:19:24;;;;;;;0.10;0.10;;;16.20;73.40;;;17.71;62.23;101885.09;2077956;28;20087;-65
2022/07/29 04:20:27;;;;;;;0.10;0.10;;;16.30;72.90;;;17.70;62.15;101880.81;2074696;28;20081;-64
2022/07/29 04:21:30;;;;;;;0.10;0.10;;;16.30;72.80;;;17.71;62.28;101876.91;2072653;28;20049;-64
2022/07/29 04:22:35;;;;;;;0.20;0.20;;;16.30;72.80;;;17.72;62.08;101880.44;2078287;28;20441;-65
2022/07/29 04:23:38;;;;;;;0.10;0.10;;;16.30;72.90;;;17.72;62.18;101883.19;2077260;28;20065;-64
2022/07/29 04:24:55;;;;;;;0.10;0.10;;;16.20;72.80;;;17.71;62.04;101885.09;2077129;28;20049;-64
2022/07/29 04:26:06;;;;;;;0.20;0.20;;;16.20;72.80;;;17.73;61.96;101890.22;2076600;28;20561;-65
2022/07/29 04:27:10;;;;;;;0.10;0.10;;;16.20;72.80;;;17.72;61.93;101883.19;2073340;28;20061;-64
2022/07/29 04:28:13;;;;;;;0.10;0.10;;;16.20;72.90;;;17.72;61.71;101878.50;2080973;28;20159;-64
2022/07/29 04:29:18;;;;;;;0.10;0.10;;;16.20;72.80;;;17.72;61.65;101875.78;2072994;28;20081;-64
2022/07/29 04:30:24;;;;;;;0.10;0.10;;;16.20;72.90;;;17.74;62.08;101883.63;2071678;28;20089;-64
2022/07/29 04:31:27;;;;;;;0.10;0.10;;;16.20;72.80;;;17.70;61.63;101891.72;2078067;28;20643;-64
2022/07/29 04:32:30;;;;;;;0.10;0.10;;;16.20;72.80;;;17.74;61.86;101887.09;2075430;28;20089;-64
2022/07/29 04:33:35;;;;;;;0.10;0.10;;;16.20;72.80;;;17.73;61.92;101891.00;2072505;28;20093;-64
2022/07/29 04:34:38;;;;;;;0.15;0.15;;;16.20;72.80;;;17.73;61.84;101887.47;2072705;28;20061;-65
2022/07/29 04:35:41;;;;;;;0.10;0.10;;;16.20;72.70;;;17.76;61.45;101884.00;2074440;28;20057;-64
2022/07/29 04:36:57;;;;;;;0.10;0.10;;;16.20;72.70;;;17.76;61.52;101884.00;2072772;28;20061;-64
2022/07/29 04:37:59;;;;;;;0.10;0.10;;;16.20;72.60;;;17.77;61.60;101891.84;2077481;28;20061;-64
2022/07/29 04:39:04;;;;;;;0.10;0.10;;;16.20;72.70;;;17.77;61.46;101882.88;2078232;28;20068;-64
2022/07/29 04:40:08;;;;;;;0.10;0.10;;;16.20;72.60;;;17.77;61.83;101882.88;2080307;28;20141;-64
2022/07/29 04:41:11;;;;;;;0.15;0.15;;;16.20;72.60;;;17.77;61.66;101886.38;2078395;28;20057;-64
2022/07/29 04:42:15;;;;;;;0.10;0.10;;;16.20;72.60;;;17.78;61.85;101887.19;2075588;28;20053;-64
2022/07/29 04:43:19;;;;;;;0.10;0.10;;;16.20;72.50;;;17.76;61.57;101879.34;2072245;28;20495;-64
2022/07/29 04:44:24;;;;;;;0.10;0.10;;;16.20;72.40;;;17.78;61.70;101881.72;2074792;28;20520;-64
2022/07/29 04:45:31;;;;;;;0.10;0.10;;;16.30;73.10;;;17.79;61.85;101878.63;2072580;28;20057;-64